sensor_id;sensor_type;location;lat;lon;timestamp;pressure;altitude;pressure_sealevel;temperature;humidity
29163;BME280;20331;53.144;8.208;2023-08-31T00:01:45;100653.41;;;13.57;96.98
29163;BME280;20331;53.144;8.208;2023-08-31T00:12:07;100659.16;;;13.45;97.29
29163;BME280;20331;53.144;8.208;2023-08-31T00:22:28;100657.53;;;13.42;97.45
29163;BME280;20331;53.144;8.208;2023-08-31T00:32:50;100663.06;;;13.35;96.62
29163;BME280;20331;53.144;8.208;2023-08-31T00:43:15;100674.44;;;13.32;96.27
29163;BME280;20331;53.144;8.208;2023-08-31T00:53:37;100673.72;;;13.29;96.65
29163;BME280;20331;53.144;8.208;2023-08-31T01:15:05;100657.91;;;13.15;97.18
29163;BME280;20331;53.144;8.208;2023-08-31T01:25:32;100655.41;;;13.11;97.12
29163;BME280;20331;53.144;8.208;2023-08-31T01:35:55;100662.00;;;12.98;97.21
29163;BME280;20331;53.144;8.208;2023-08-31T01:46:18;100657.81;;;12.96;98.28
29163;BME280;20331;53.144;8.208;2023-08-31T01:56:40;100660.50;;;12.93;98.03
29163;BME280;20331;53.144;8.208;2023-08-31T02:07:02;100658.97;;;12.89;97.13
29163;BME280;20331;53.144;8.208;2023-08-31T02:17:24;100660.41;;;12.76;97.87
29163;BME280;20331;53.144;8.208;2023-08-31T02:27:46;100667.41;;;12.74;97.68
29163;BME280;20331;53.144;8.208;2023-08-31T02:38:09;100663.06;;;12.74;98.30
29163;BME280;20331;53.144;8.208;2023-08-31T02:48:32;100671.50;;;12.79;97.13
29163;BME280;20331;53.144;8.208;2023-08-31T02:58:54;100662.66;;;12.63;97.01
29163;BME280;20331;53.144;8.208;2023-08-31T03:09:16;100668.22;;;12.54;97.52
29163;BME280;20331;53.144;8.208;2023-08-31T03:19:37;100665.63;;;12.54;98.56
29163;BME280;20331;53.144;8.208;2023-08-31T03:29:59;100661.19;;;12.56;98.25
29163;BME280;20331;53.144;8.208;2023-08-31T03:40:20;100664.16;;;12.47;97.50
29163;BME280;20331;53.144;8.208;2023-08-31T03:50:42;100674.56;;;12.47;97.61
29163;BME280;20331;53.144;8.208;2023-08-31T04:01:04;100684.03;;;12.48;97.82
29163;BME280;20331;53.144;8.208;2023-08-31T04:11:26;100692.72;;;12.47;97.12
29163;BME280;20331;53.144;8.208;2023-08-31T04:21:48;100695.28;;;12.49;98.41
29163;BME280;20331;53.144;8.208;2023-08-31T04:32:09;100693.34;;;12.54;98.68
29163;BME280;20331;53.144;8.208;2023-08-31T04:42:31;100707.09;;;12.56;98.19
29163;BME280;20331;53.144;8.208;2023-08-31T04:52:52;100706.47;;;12.49;98.78
29163;BME280;20331;53.144;8.208;2023-08-31T05:03:14;100704.94;;;12.45;98.57
29163;BME280;20331;53.144;8.208;2023-08-31T05:13:37;100711.88;;;12.45;97.89
29163;BME280;20331;53.144;8.208;2023-08-31T05:23:59;100711.56;;;12.52;99.49
29163;BME280;20331;53.144;8.208;2023-08-31T05:34:21;100718.19;;;12.59;98.14
29163;BME280;20331;53.144;8.208;2023-08-31T05:44:44;100721.22;;;12.70;98.60
29163;BME280;20331;53.144;8.208;2023-08-31T05:55:05;100731.22;;;12.79;98.96
29163;BME280;20331;53.144;8.208;2023-08-31T06:05:28;100730.59;;;12.94;98.09
29163;BME280;20331;53.144;8.208;2023-08-31T06:15:52;100742.16;;;13.09;96.57
29163;BME280;20331;53.144;8.208;2023-08-31T06:26:13;100752.09;;;13.20;98.09
29163;BME280;20331;53.144;8.208;2023-08-31T06:36:35;100751.63;;;13.30;96.95
29163;BME280;20331;53.144;8.208;2023-08-31T06:46:57;100761.16;;;13.50;96.06
29163;BME280;20331;53.144;8.208;2023-08-31T06:57:18;100770.59;;;13.52;95.14
29163;BME280;20331;53.144;8.208;2023-08-31T07:07:40;100768.44;;;13.62;97.02
29163;BME280;20331;53.144;8.208;2023-08-31T07:18:02;100771.69;;;13.67;96.59
29163;BME280;20331;53.144;8.208;2023-08-31T07:28:23;100775.78;;;13.72;96.88
29163;BME280;20331;53.144;8.208;2023-08-31T07:38:45;100784.03;;;13.82;97.04
29163;BME280;20331;53.144;8.208;2023-08-31T07:49:06;100790.38;;;13.95;95.17
29163;BME280;20331;53.144;8.208;2023-08-31T07:59:28;100782.50;;;13.96;96.60
29163;BME280;20331;53.144;8.208;2023-08-31T08:09:50;100782.78;;;14.09;96.43
29163;BME280;20331;53.144;8.208;2023-08-31T08:20:11;100809.44;;;14.14;94.63
29163;BME280;20331;53.144;8.208;2023-08-31T08:30:33;100823.13;;;14.19;94.89
29163;BME280;20331;53.144;8.208;2023-08-31T08:40:54;100833.63;;;14.36;94.42
29163;BME280;20331;53.144;8.208;2023-08-31T08:51:16;100844.75;;;14.58;93.33
29163;BME280;20331;53.144;8.208;2023-08-31T09:01:38;100853.19;;;14.82;91.68
29163;BME280;20331;53.144;8.208;2023-08-31T09:12:09;100860.34;;;15.14;91.52
29163;BME280;20331;53.144;8.208;2023-08-31T09:22:32;100854.41;;;15.46;91.08
29163;BME280;20331;53.144;8.208;2023-08-31T09:32:54;100844.78;;;15.98;87.81
29163;BME280;20331;53.144;8.208;2023-08-31T09:43:25;100840.50;;;16.45;85.57
29163;BME280;20331;53.144;8.208;2023-08-31T09:53:48;100828.41;;;16.75;80.90
29163;BME280;20331;53.144;8.208;2023-08-31T10:04:11;100818.81;;;16.60;85.62
29163;BME280;20331;53.144;8.208;2023-08-31T10:14:33;100832.97;;;16.72;85.46
29163;BME280;20331;53.144;8.208;2023-08-31T10:25:02;100839.19;;;16.69;89.61
29163;BME280;20331;53.144;8.208;2023-08-31T10:35:25;100820.13;;;16.83;86.96
29163;BME280;20331;53.144;8.208;2023-08-31T10:46:01;100817.22;;;17.19;79.45
29163;BME280;20331;53.144;8.208;2023-08-31T10:56:28;100832.25;;;17.45;76.74
29163;BME280;20331;53.144;8.208;2023-08-31T11:07:12;100836.53;;;17.46;78.24
29163;BME280;20331;53.144;8.208;2023-08-31T11:17:34;100835.78;;;17.59;73.49
29163;BME280;20331;53.144;8.208;2023-08-31T11:28:00;100859.72;;;17.67;76.78
29163;BME280;20331;53.144;8.208;2023-08-31T11:38:22;100879.16;;;17.02;75.32
29163;BME280;20331;53.144;8.208;2023-08-31T11:48:45;100928.97;;;16.68;79.17
29163;BME280;20331;53.144;8.208;2023-08-31T11:59:10;100921.72;;;15.91;83.97
29163;BME280;20331;53.144;8.208;2023-08-31T12:09:35;100932.28;;;15.54;86.20
29163;BME280;20331;53.144;8.208;2023-08-31T12:20:06;100933.66;;;15.61;88.32
29163;BME280;20331;53.144;8.208;2023-08-31T12:30:28;100930.63;;;15.87;90.05
29163;BME280;20331;53.144;8.208;2023-08-31T12:40:50;100939.66;;;16.31;89.14
29163;BME280;20331;53.144;8.208;2023-08-31T12:51:12;100935.13;;;16.67;91.26
29163;BME280;20331;53.144;8.208;2023-08-31T13:01:33;100931.13;;;16.77;89.35
29163;BME280;20331;53.144;8.208;2023-08-31T13:11:55;100958.69;;;16.50;91.54
29163;BME280;20331;53.144;8.208;2023-08-31T13:22:16;100929.03;;;16.34;93.08
29163;BME280;20331;53.144;8.208;2023-08-31T13:32:38;100954.00;;;16.72;93.56
29163;BME280;20331;53.144;8.208;2023-08-31T13:43:00;100935.06;;;16.84;88.28
29163;BME280;20331;53.144;8.208;2023-08-31T13:53:24;100967.72;;;16.93;86.28
29163;BME280;20331;53.144;8.208;2023-08-31T14:03:46;100956.16;;;17.13;86.72
29163;BME280;20331;53.144;8.208;2023-08-31T14:14:08;100963.00;;;17.31;85.97
29163;BME280;20331;53.144;8.208;2023-08-31T14:24:33;100960.31;;;17.48;84.79
29163;BME280;20331;53.144;8.208;2023-08-31T14:34:54;100966.38;;;17.64;85.43
29163;BME280;20331;53.144;8.208;2023-08-31T14:45:16;100979.00;;;17.87;81.94
29163;BME280;20331;53.144;8.208;2023-08-31T14:55:38;100965.75;;;18.04;79.91
29163;BME280;20331;53.144;8.208;2023-08-31T15:06:00;100974.13;;;18.25;79.20
29163;BME280;20331;53.144;8.208;2023-08-31T15:16:22;100961.56;;;18.45;78.50
29163;BME280;20331;53.144;8.208;2023-08-31T15:26:44;100980.66;;;18.47;80.02
29163;BME280;20331;53.144;8.208;2023-08-31T15:37:05;101005.97;;;18.33;81.39
29163;BME280;20331;53.144;8.208;2023-08-31T15:47:27;101028.69;;;18.02;81.69
29163;BME280;20331;53.144;8.208;2023-08-31T15:57:48;101022.56;;;17.88;81.83
29163;BME280;20331;53.144;8.208;2023-08-31T16:08:10;101033.41;;;17.66;83.54
29163;BME280;20331;53.144;8.208;2023-08-31T16:18:32;101041.31;;;17.34;83.57
29163;BME280;20331;53.144;8.208;2023-08-31T16:28:53;101042.13;;;17.03;84.85
29163;BME280;20331;53.144;8.208;2023-08-31T16:39:16;101062.16;;;16.87;83.15
29163;BME280;20331;53.144;8.208;2023-08-31T16:49:37;101067.19;;;16.57;85.24
29163;BME280;20331;53.144;8.208;2023-08-31T16:59:59;101054.88;;;16.42;90.70
29163;BME280;20331;53.144;8.208;2023-08-31T17:10:21;101046.59;;;16.51;91.86
29163;BME280;20331;53.144;8.208;2023-08-31T17:20:42;101053.28;;;16.57;93.19
29163;BME280;20331;53.144;8.208;2023-08-31T17:31:04;101056.97;;;16.53;93.18
29163;BME280;20331;53.144;8.208;2023-08-31T17:41:26;101061.50;;;16.49;93.38
29163;BME280;20331;53.144;8.208;2023-08-31T17:51:47;101067.50;;;16.51;93.12
29163;BME280;20331;53.144;8.208;2023-08-31T18:02:10;101052.91;;;16.47;92.81
29163;BME280;20331;53.144;8.208;2023-08-31T18:12:32;101075.63;;;16.45;93.11
29163;BME280;20331;53.144;8.208;2023-08-31T18:22:54;101075.78;;;16.42;93.80
29163;BME280;20331;53.144;8.208;2023-08-31T18:33:15;101102.34;;;16.33;93.16
29163;BME280;20331;53.144;8.208;2023-08-31T18:43:40;101112.59;;;16.19;93.63
29163;BME280;20331;53.144;8.208;2023-08-31T18:54:05;101115.81;;;16.07;95.02
29163;BME280;20331;53.144;8.208;2023-08-31T19:04:26;101135.59;;;15.94;93.28
29163;BME280;20331;53.144;8.208;2023-08-31T19:14:48;101147.69;;;15.78;95.25
29163;BME280;20331;53.144;8.208;2023-08-31T19:25:10;101155.78;;;15.72;94.55
29163;BME280;20331;53.144;8.208;2023-08-31T19:35:32;101166.13;;;15.55;95.00
29163;BME280;20331;53.144;8.208;2023-08-31T19:45:57;101169.16;;;15.46;94.95
29163;BME280;20331;53.144;8.208;2023-08-31T19:56:19;101174.63;;;15.40;94.92
29163;BME280;20331;53.144;8.208;2023-08-31T20:06:40;101173.31;;;15.30;95.57
29163;BME280;20331;53.144;8.208;2023-08-31T20:17:02;101184.28;;;15.18;95.35
29163;BME280;20331;53.144;8.208;2023-08-31T20:27:24;101182.59;;;15.17;94.82
29163;BME280;20331;53.144;8.208;2023-08-31T20:37:46;101182.97;;;15.07;96.15
29163;BME280;20331;53.144;8.208;2023-08-31T20:48:08;101185.00;;;15.01;94.71
29163;BME280;20331;53.144;8.208;2023-08-31T20:58:31;101197.03;;;14.83;94.28
29163;BME280;20331;53.144;8.208;2023-08-31T21:08:53;101205.38;;;14.71;94.55
29163;BME280;20331;53.144;8.208;2023-08-31T21:19:15;101211.53;;;14.69;95.08
29163;BME280;20331;53.144;8.208;2023-08-31T21:29:36;101226.34;;;14.68;93.96
29163;BME280;20331;53.144;8.208;2023-08-31T21:39:58;101212.72;;;14.62;94.88
29163;BME280;20331;53.144;8.208;2023-08-31T21:50:20;101228.63;;;14.54;94.61
29163;BME280;20331;53.144;8.208;2023-08-31T22:00:41;101237.84;;;14.41;94.82
29163;BME280;20331;53.144;8.208;2023-08-31T22:11:04;101227.03;;;14.30;95.69
29163;BME280;20331;53.144;8.208;2023-08-31T22:21:26;101236.72;;;14.25;95.58
29163;BME280;20331;53.144;8.208;2023-08-31T22:31:50;101243.06;;;14.18;95.31
29163;BME280;20331;53.144;8.208;2023-08-31T22:42:11;101250.28;;;14.11;95.75
29163;BME280;20331;53.144;8.208;2023-08-31T22:52:34;101264.31;;;14.07;95.39
29163;BME280;20331;53.144;8.208;2023-08-31T23:02:55;101272.50;;;13.97;94.14
29163;BME280;20331;53.144;8.208;2023-08-31T23:13:17;101269.06;;;13.96;94.53
29163;BME280;20331;53.144;8.208;2023-08-31T23:23:39;101265.81;;;13.90;95.48
29163;BME280;20331;53.144;8.208;2023-08-31T23:34:01;101261.66;;;13.86;95.84
29163;BME280;20331;53.144;8.208;2023-08-31T23:44:22;101264.13;;;13.89;95.06
29163;BME280;20331;53.144;8.208;2023-08-31T23:54:44;101274.75;;;13.83;94.92
